Time;durP1;ratioP1;P1;durP2;ratioP2;P2;SDS_P1;SDS_P2;PMS_P1;PMS_P2;Temp;Humidity;BMP_temperature;BMP_pressure;BME280_temperature;BME280_humidity;BME280_pressure;Samples;Min_cycle;Max_cycle;Signal;HPM_P1;HPM_P2
2024/01/07 00:02:21;;;;;;;1.75;1.75;;;2.40;99.90;;;;;;5027083;28;20197;-83
2024/01/07 00:04:49;;;;;;;1.90;1.70;;;2.40;99.90;;;;;;5027328;28;20223;-82
2024/01/07 00:07:16;;;;;;;2.55;2.45;;;2.40;99.90;;;;;;5026334;28;20220;-82
2024/01/07 00:09:42;;;;;;;1.52;1.42;;;2.30;99.90;;;;;;5032958;28;20200;-83
2024/01/07 00:12:09;;;;;;;0.80;0.80;;;2.30;99.90;;;;;;5029553;28;20211;-83
2024/01/07 00:14:36;;;;;;;2.90;1.30;;;2.30;99.90;;;;;;5026731;28;20224;-84
2024/01/07 00:17:03;;;;;;;0.40;0.40;;;2.20;99.90;;;;;;5035630;28;20207;-80
2024/01/07 00:19:31;;;;;;;0.52;0.52;;;2.20;99.90;;;;;;5018038;28;20196;-81
2024/01/07 00:21:59;;;;;;;2.28;1.80;;;2.20;99.90;;;;;;5022570;28;20250;-80
2024/01/07 00:24:28;;;;;;;0.45;0.40;;;2.20;99.90;;;;;;5027730;28;20227;-84
2024/01/07 00:26:54;;;;;;;0.50;0.40;;;2.20;99.90;;;;;;5030925;28;20212;-83
2024/01/07 00:29:21;;;;;;;0.50;0.40;;;2.20;99.90;;;;;;5029093;28;20196;-83
2024/01/07 00:31:48;;;;;;;0.40;0.40;;;2.20;99.90;;;;;;5030485;28;20192;-83
2024/01/07 00:34:15;;;;;;;0.70;0.70;;;2.10;99.90;;;;;;5029690;28;20200;-82
2024/01/07 00:36:41;;;;;;;0.45;0.40;;;2.10;99.90;;;;;;5031220;28;20231;-84
2024/01/07 00:39:09;;;;;;;0.50;0.40;;;2.10;99.90;;;;;;5030474;28;20205;-80
2024/01/07 00:41:36;;;;;;;0.50;0.40;;;2.10;99.90;;;;;;5033484;28;20210;-83
2024/01/07 00:44:03;;;;;;;0.40;0.40;;;2.10;99.90;;;;;;5041465;28;20214;-82
2024/01/07 00:46:29;;;;;;;0.95;0.90;;;2.10;99.90;;;;;;5033841;28;20208;-84
2024/01/07 00:48:56;;;;;;;2.70;2.05;;;2.10;99.90;;;;;;5026498;28;20196;-83
2024/01/07 00:51:23;;;;;;;0.50;0.40;;;2.00;99.90;;;;;;5038411;28;20766;-83
2024/01/07 00:53:50;;;;;;;0.77;0.68;;;2.00;99.90;;;;;;5030044;28;20200;-82
2024/01/07 00:56:18;;;;;;;0.40;0.40;;;2.00;99.90;;;;;;5031419;28;20230;-83
2024/01/07 00:58:44;;;;;;;1.95;1.17;;;2.00;99.90;;;;;;5032708;28;20677;-83
2024/01/07 01:01:11;;;;;;;0.50;0.50;;;2.00;99.90;;;;;;5032805;28;20204;-81
2024/01/07 01:03:38;;;;;;;0.55;0.55;;;2.00;99.90;;;;;;5034506;28;20206;-82
2024/01/07 01:06:05;;;;;;;0.93;0.93;;;2.00;99.90;;;;;;5025615;28;20224;-83
2024/01/07 01:08:32;;;;;;;1.50;1.40;;;2.00;99.90;;;;;;5032761;28;20195;-82
2024/01/07 01:10:58;;;;;;;3.80;3.50;;;2.00;99.90;;;;;;5041161;28;20206;-81
2024/01/07 01:13:26;;;;;;;0.50;0.50;;;2.00;99.90;;;;;;5029854;28;20687;-82
2024/01/07 01:15:55;;;;;;;0.70;0.70;;;2.00;99.90;;;;;;5026273;28;20215;-81
2024/01/07 01:18:21;;;;;;;0.55;0.55;;;2.00;99.90;;;;;;5039050;28;20214;-82
2024/01/07 01:20:48;;;;;;;1.02;1.02;;;2.00;99.90;;;;;;5029060;28;20208;-81
2024/01/07 01:23:15;;;;;;;0.40;0.40;;;2.00;99.90;;;;;;5029927;28;20200;-81
2024/01/07 01:25:42;;;;;;;0.40;0.40;;;2.00;99.90;;;;;;5032222;28;20237;-84
2024/01/07 01:28:08;;;;;;;0.40;0.40;;;2.00;99.90;;;;;;5032559;28;20615;-82
2024/01/07 01:30:36;;;;;;;1.42;0.80;;;2.00;99.90;;;;;;5032572;28;20196;-82
2024/01/07 01:33:03;;;;;;;1.80;1.70;;;2.10;99.90;;;;;;5040478;28;20200;-83
2024/01/07 01:35:30;;;;;;;0.40;0.40;;;2.10;99.90;;;;;;5029325;28;20230;-84
2024/01/07 01:37:57;;;;;;;2.67;2.58;;;2.00;99.90;;;;;;5035462;28;20206;-84
2024/01/07 01:40:24;;;;;;;1.15;1.15;;;2.00;99.90;;;;;;5031520;28;20232;-83
2024/01/07 01:42:50;;;;;;;15.55;2.25;;;2.00;99.90;;;;;;5031635;28;20196;-81
2024/01/07 01:45:18;;;;;;;0.45;0.45;;;2.00;99.90;;;;;;5030720;28;20223;-83
2024/01/07 01:47:48;;;;;;;0.40;0.40;;;2.00;99.90;;;;;;5027468;28;20698;-82
2024/01/07 01:50:15;;;;;;;0.40;0.40;;;2.00;99.90;;;;;;5028235;28;20211;-83
2024/01/07 01:52:42;;;;;;;0.45;0.40;;;2.00;99.90;;;;;;5032304;28;20195;-83
2024/01/07 01:55:09;;;;;;;1.88;0.75;;;2.00;99.90;;;;;;5032093;28;20230;-84
2024/01/07 01:57:39;;;;;;;1.05;0.77;;;2.00;99.90;;;;;;5023876;28;20214;-83
2024/01/07 02:00:08;;;;;;;0.40;0.40;;;2.00;99.90;;;;;;5032427;28;20200;-83
2024/01/07 02:02:35;;;;;;;0.63;0.63;;;2.00;99.90;;;;;;5031253;28;20196;-83
2024/01/07 02:05:04;;;;;;;0.40;0.40;;;2.00;99.90;;;;;;5031362;28;20622;-79
2024/01/07 02:07:31;;;;;;;6.85;3.22;;;2.00;99.90;;;;;;5028365;28;20215;-83
2024/01/07 02:09:58;;;;;;;0.40;0.40;;;2.00;99.90;;;;;;5028177;28;20243;-82
2024/01/07 02:12:25;;;;;;;0.40;0.40;;;1.90;99.90;;;;;;5028022;28;20200;-83
2024/01/07 02:14:52;;;;;;;0.50;0.40;;;1.90;99.90;;;;;;5028136;28;20219;-84
2024/01/07 02:17:20;;;;;;;1.33;1.17;;;1.90;99.90;;;;;;5027602;28;20207;-83
2024/01/07 02:19:46;;;;;;;0.40;0.40;;;2.00;99.90;;;;;;5030732;28;20615;-83
2024/01/07 02:22:14;;;;;;;1.25;0.93;;;2.00;99.90;;;;;;5031404;28;20206;-80
2024/01/07 02:24:42;;;;;;;0.50;0.40;;;1.90;99.90;;;;;;5014946;28;20216;-81
2024/01/07 02:27:09;;;;;;;0.40;0.40;;;1.90;99.90;;;;;;5030863;28;20215;-82
2024/01/07 02:29:36;;;;;;;0.50;0.50;;;1.90;99.90;;;;;;5031774;28;20207;-80
2024/01/07 02:32:03;;;;;;;0.40;0.40;;;1.90;99.90;;;;;;5036367;28;20291;-82
2024/01/07 02:34:30;;;;;;;1.25;1.25;;;1.80;99.90;;;;;;5029369;28;20228;-82
2024/01/07 02:36:56;;;;;;;5.38;2.70;;;1.80;99.90;;;;;;5031140;28;20195;-81
2024/01/07 02:39:23;;;;;;;3.30;1.70;;;1.80;99.90;;;;;;5029516;28;20685;-82
2024/01/07 02:41:51;;;;;;;0.50;0.40;;;1.80;99.90;;;;;;5023711;28;20199;-83
2024/01/07 02:44:18;;;;;;;3.85;2.88;;;1.80;99.90;;;;;;5022265;28;20204;-83
2024/01/07 02:46:46;;;;;;;0.65;0.65;;;1.70;99.90;;;;;;5030681;28;20283;-83
2024/01/07 02:49:12;;;;;;;3.35;3.15;;;1.80;99.90;;;;;;5029305;28;20200;-83
2024/01/07 02:51:39;;;;;;;1.67;0.98;;;1.80;99.90;;;;;;5027490;28;20200;-84
2024/01/07 02:54:06;;;;;;;0.50;0.40;;;1.80;99.90;;;;;;5027507;28;20197;-83
2024/01/07 02:56:33;;;;;;;1.50;1.40;;;1.80;99.90;;;;;;5034359;28;20674;-82
2024/01/07 02:59:01;;;;;;;3.30;3.10;;;1.80;99.90;;;;;;5033065;28;20210;-83
2024/01/07 03:01:27;;;;;;;0.73;0.73;;;1.80;99.90;;;;;;5029179;28;20204;-83
2024/01/07 03:03:54;;;;;;;17.33;16.15;;;1.80;99.90;;;;;;5027400;28;20203;-83
2024/01/07 03:06:21;;;;;;;12.38;1.65;;;1.80;99.90;;;;;;5027032;28;20220;-84
2024/01/07 03:08:49;;;;;;;0.40;0.40;;;1.80;99.90;;;;;;5022716;28;20192;-83
2024/01/07 03:11:16;;;;;;;2.50;1.83;;;1.70;99.90;;;;;;5022901;28;20204;-83
2024/01/07 03:13:42;;;;;;;0.40;0.40;;;1.70;99.90;;;;;;5030747;28;20219;-82
2024/01/07 03:16:20;;;;;;;1.55;1.45;;;1.70;99.90;;;;;;5030189;28;20251;-81
2024/01/07 03:18:47;;;;;;;0.60;0.60;;;1.60;99.90;;;;;;5014950;28;20199;-83
2024/01/07 03:21:18;;;;;;;0.50;0.40;;;1.60;99.90;;;;;;5030386;28;20199;-82
2024/01/07 03:23:45;;;;;;;0.50;0.45;;;1.60;99.90;;;;;;5022276;28;20195;-83
2024/01/07 03:26:12;;;;;;;1.30;1.30;;;1.60;99.90;;;;;;5029693;28;20234;-82
2024/01/07 03:28:38;;;;;;;0.40;0.40;;;1.70;99.90;;;;;;5027994;28;20234;-83
2024/01/07 03:31:06;;;;;;;3.38;1.77;;;1.70;99.90;;;;;;5026985;28;20604;-83
2024/01/07 03:33:34;;;;;;;0.55;0.50;;;1.70;99.90;;;;;;5026643;28;20200;-83
2024/01/07 03:36:01;;;;;;;0.50;0.50;;;1.70;99.90;;;;;;5027341;28;20231;-82
2024/01/07 03:38:28;;;;;;;2.05;1.95;;;1.60;99.90;;;;;;5025604;28;20192;-83
2024/01/07 03:40:54;;;;;;;0.47;0.40;;;1.60;99.90;;;;;;5026154;28;20200;-81
2024/01/07 03:43:21;;;;;;;0.40;0.40;;;1.60;99.90;;;;;;5026689;28;20201;-82
2024/01/07 03:45:49;;;;;;;2.75;1.33;;;1.60;99.90;;;;;;5021424;28;20221;-81
2024/01/07 03:48:16;;;;;;;0.40;0.40;;;1.60;99.90;;;;;;5029251;28;20222;-82
2024/01/07 03:50:44;;;;;;;0.65;0.65;;;1.70;99.90;;;;;;5026882;28;20219;-82
2024/01/07 03:53:10;;;;;;;1.33;1.23;;;1.60;99.90;;;;;;5026175;28;20227;-83
2024/01/07 03:55:37;;;;;;;0.50;0.50;;;1.60;99.90;;;;;;5019256;28;20235;-83
2024/01/07 03:58:05;;;;;;;2.45;2.35;;;1.50;99.90;;;;;;5024074;28;20252;-82
2024/01/07 04:00:31;;;;;;;2.67;2.58;;;1.50;99.90;;;;;;5029564;28;20268;-82
2024/01/07 04:02:58;;;;;;;0.50;0.40;;;1.50;99.90;;;;;;5034017;28;20656;-82
2024/01/07 04:05:25;;;;;;;1.63;1.52;;;1.50;99.90;;;;;;5033141;28;20223;-80
2024/01/07 04:07:53;;;;;;;0.50;0.40;;;1.40;99.90;;;;;;5034121;28;20226;-84
2024/01/07 04:10:20;;;;;;;1.30;1.20;;;1.40;99.90;;;;;;5032620;28;20210;-83
2024/01/07 04:12:47;;;;;;;0.95;0.80;;;1.40;99.90;;;;;;5029728;28;20216;-82
2024/01/07 04:15:14;;;;;;;1.13;1.13;;;1.50;99.90;;;;;;5029719;28;20224;-82
2024/01/07 04:17:40;;;;;;;0.80;0.80;;;1.50;99.90;;;;;;5031488;28;20203;-81
2024/01/07 04:20:08;;;;;;;0.50;0.40;;;1.40;99.90;;;;;;5027014;28;20215;-82
2024/01/07 04:22:35;;;;;;;0.50;0.40;;;1.40;99.90;;;;;;5031452;28;20207;-81
2024/01/07 04:25:05;;;;;;;0.55;0.52;;;1.40;99.90;;;;;;5033201;28;20765;-80
2024/01/07 04:27:31;;;;;;;3.72;2.88;;;1.40;99.90;;;;;;5031668;28;20218;-82
2024/01/07 04:29:58;;;;;;;2.22;2.10;;;1.40;99.90;;;;;;5033672;28;20211;-82
2024/01/07 04:32:25;;;;;;;0.50;0.40;;;1.40;99.90;;;;;;5033924;28;20206;-83
2024/01/07 04:34:52;;;;;;;8.32;4.82;;;1.30;99.90;;;;;;5021323;28;20631;-80
2024/01/07 04:37:18;;;;;;;4.43;2.58;;;1.30;99.90;;;;;;5035962;28;20196;-83
2024/01/07 04:39:45;;;;;;;2.55;1.77;;;1.20;99.90;;;;;;5029641;28;20207;-81
2024/01/07 04:42:13;;;;;;;0.75;0.75;;;1.10;99.90;;;;;;5029332;28;20578;-80
2024/01/07 04:44:40;;;;;;;3.45;2.90;;;1.10;99.90;;;;;;5031038;28;20224;-80
2024/01/07 04:47:26;;;;;;;2.33;2.10;;;1.10;99.90;;;;;;5033030;28;20219;-82
2024/01/07 04:49:53;;;;;;;2.75;2.55;;;1.10;99.90;;;;;;5032462;28;20200;-82
2024/01/07 04:52:20;;;;;;;3.22;2.72;;;1.00;99.90;;;;;;5032803;28;20230;-82
2024/01/07 04:54:46;;;;;;;0.50;0.45;;;1.00;99.90;;;;;;5032746;28;20223;-82
2024/01/07 04:57:15;;;;;;;2.35;1.95;;;1.00;99.90;;;;;;5032498;28;20313;-80
2024/01/07 04:59:41;;;;;;;0.95;0.68;;;1.00;99.90;;;;;;5023150;28;20826;-82
2024/01/07 05:02:08;;;;;;;0.50;0.40;;;1.10;99.90;;;;;;5027007;28;20208;-84
2024/01/07 05:04:36;;;;;;;1.23;1.23;;;1.10;99.90;;;;;;5029680;28;20224;-81
2024/01/07 05:07:03;;;;;;;3.58;3.40;;;1.10;99.90;;;;;;5031746;28;20587;-81
2024/01/07 05:09:30;;;;;;;4.55;3.78;;;1.10;99.90;;;;;;5030901;28;20660;-81
2024/01/07 05:11:56;;;;;;;0.50;0.40;;;1.10;99.90;;;;;;5019381;28;20202;-81
2024/01/07 05:14:25;;;;;;;3.10;1.67;;;1.10;99.90;;;;;;5028169;28;20224;-82
2024/01/07 05:16:51;;;;;;;16.27;5.43;;;1.10;99.90;;;;;;5035951;28;20232;-81
2024/01/07 05:19:19;;;;;;;0.50;0.50;;;1.10;99.90;;;;;;5028020;28;20204;-82
2024/01/07 05:21:45;;;;;;;1.00;1.00;;;1.10;99.90;;;;;;5030176;28;20204;-82
2024/01/07 05:24:12;;;;;;;0.98;0.98;;;1.10;99.90;;;;;;5031645;28;20294;-80
2024/01/07 05:26:40;;;;;;;2.38;1.75;;;1.10;99.90;;;;;;5028672;28;20196;-81
2024/01/07 05:29:07;;;;;;;0.60;0.60;;;1.10;99.90;;;;;;5027387;28;20687;-82
2024/01/07 05:31:35;;;;;;;3.28;3.00;;;1.10;99.90;;;;;;5026734;28;20207;-81
2024/01/07 05:34:01;;;;;;;0.50;0.40;;;1.10;99.90;;;;;;5029500;28;20267;-80
2024/01/07 05:36:28;;;;;;;0.95;0.95;;;1.10;99.90;;;;;;5030318;28;20200;-81
2024/01/07 05:38:56;;;;;;;0.98;0.98;;;1.10;99.90;;;;;;5026901;28;20188;-81
2024/01/07 05:41:22;;;;;;;6.57;3.80;;;1.10;99.90;;;;;;5026768;28;20204;-81
2024/01/07 05:43:49;;;;;;;4.63;2.60;;;1.00;99.90;;;;;;5028465;28;20264;-82
2024/01/07 05:46:16;;;;;;;0.80;0.80;;;1.00;99.90;;;;;;5032529;28;20242;-80
2024/01/07 05:48:45;;;;;;;1.50;1.42;;;1.00;99.90;;;;;;5019677;28;20220;-82
2024/01/07 05:51:12;;;;;;;0.95;0.85;;;1.00;99.90;;;;;;5030765;28;20205;-79
2024/01/07 05:53:39;;;;;;;0.50;0.40;;;1.00;99.90;;;;;;5022051;28;20227;-81
2024/01/07 05:56:06;;;;;;;2.00;1.90;;;0.90;99.90;;;;;;5022869;28;20229;-79
2024/01/07 05:58:33;;;;;;;3.58;2.25;;;1.00;99.90;;;;;;5023112;28;20216;-82
2024/01/07 06:01:00;;;;;;;3.40;2.20;;;1.00;99.90;;;;;;5020368;28;20208;-81
2024/01/07 06:03:27;;;;;;;1.80;1.70;;;1.00;99.90;;;;;;5027885;28;20654;-81
2024/01/07 06:05:55;;;;;;;1.48;1.38;;;1.00;99.90;;;;;;5021181;28;20225;-79
2024/01/07 06:08:21;;;;;;;1.30;1.10;;;1.00;99.90;;;;;;5030524;28;20216;-82
2024/01/07 06:10:48;;;;;;;1.92;1.83;;;1.00;99.90;;;;;;5028959;28;20226;-79
2024/01/07 06:13:15;;;;;;;15.15;2.72;;;1.00;99.90;;;;;;5031763;28;20210;-78
2024/01/07 06:15:42;;;;;;;1.58;1.50;;;1.00;99.90;;;;;;5036948;28;20223;-81
2024/01/07 06:18:08;;;;;;;0.90;0.90;;;1.00;99.90;;;;;;5026418;28;20219;-80
2024/01/07 06:20:35;;;;;;;1.23;1.20;;;1.10;99.90;;;;;;5026721;28;20202;-83
2024/01/07 06:23:04;;;;;;;1.90;1.83;;;1.10;99.90;;;;;;5019004;28;20659;-81
2024/01/07 06:25:31;;;;;;;0.80;0.80;;;1.00;99.90;;;;;;5026832;28;20231;-83
2024/01/07 06:27:57;;;;;;;4.00;1.85;;;1.00;99.90;;;;;;5028773;28;20215;-80
2024/01/07 06:30:24;;;;;;;1.70;1.60;;;0.90;99.90;;;;;;5031149;28;20200;-81
2024/01/07 06:32:51;;;;;;;0.65;0.65;;;0.90;99.90;;;;;;5028231;28;20196;-82
2024/01/07 06:35:18;;;;;;;2.35;2.25;;;1.00;99.90;;;;;;5026021;28;20789;-83
2024/01/07 06:37:45;;;;;;;14.85;3.47;;;1.00;99.90;;;;;;5034726;28;20206;-83
2024/01/07 06:40:13;;;;;;;1.30;1.20;;;1.00;99.90;;;;;;5031317;28;20204;-79
2024/01/07 06:42:40;;;;;;;0.50;0.40;;;1.00;99.90;;;;;;5032482;28;20207;-81
2024/01/07 06:45:08;;;;;;;1.40;1.30;;;1.00;99.90;;;;;;5033127;28;20220;-83
2024/01/07 06:47:35;;;;;;;1.60;1.50;;;1.00;99.90;;;;;;5032700;28;20246;-83
2024/01/07 06:50:01;;;;;;;2.63;2.45;;;1.00;99.90;;;;;;5029363;28;20192;-81
2024/01/07 06:52:27;;;;;;;1.50;1.40;;;1.00;99.90;;;;;;5029044;28;20199;-83
2024/01/07 06:54:54;;;;;;;1.05;1.02;;;1.00;99.90;;;;;;5031312;28;20235;-83
2024/01/07 06:57:22;;;;;;;2.95;2.75;;;1.00;99.90;;;;;;5034288;28;20207;-82
2024/01/07 06:59:49;;;;;;;0.85;0.85;;;1.00;99.90;;;;;;5030213;28;20200;-83
2024/01/07 07:02:16;;;;;;;0.60;0.60;;;1.00;99.90;;;;;;5040117;28;20196;-80
2024/01/07 07:04:42;;;;;;;4.00;3.67;;;1.00;99.90;;;;;;5032105;28;20711;-82
2024/01/07 07:07:09;;;;;;;0.80;0.77;;;0.90;99.90;;;;;;5032593;28;20196;-83
2024/01/07 07:09:36;;;;;;;3.20;1.85;;;0.90;99.90;;;;;;5025675;28;20251;-81
2024/01/07 07:12:03;;;;;;;1.90;1.67;;;1.00;99.90;;;;;;5029502;28;20206;-81
2024/01/07 07:14:31;;;;;;;2.55;2.35;;;0.90;99.90;;;;;;5028741;28;20220;-82
2024/01/07 07:16:58;;;;;;;3.97;1.10;;;0.90;99.90;;;;;;5022308;28;20421;-82
2024/01/07 07:19:25;;;;;;;2.90;2.05;;;0.80;99.90;;;;;;5032026;28;20199;-82
2024/01/07 07:21:52;;;;;;;4.45;4.05;;;0.80;99.90;;;;;;5027790;28;20554;-81
2024/01/07 07:24:19;;;;;;;2.15;1.90;;;0.80;99.90;;;;;;5028741;28;20196;-82
2024/01/07 07:26:45;;;;;;;4.07;3.72;;;0.80;99.90;;;;;;5028718;28;20196;-83
2024/01/07 07:29:12;;;;;;;0.93;0.93;;;0.80;99.90;;;;;;5032622;28;20207;-83
2024/01/07 07:31:40;;;;;;;0.50;0.40;;;0.80;99.90;;;;;;5031844;28;20204;-83
2024/01/07 07:34:09;;;;;;;1.65;1.55;;;0.80;99.90;;;;;;5034936;28;20206;-83
2024/01/07 07:36:36;;;;;;;0.50;0.40;;;0.80;99.90;;;;;;5027814;28;20192;-83
2024/01/07 07:39:03;;;;;;;3.88;3.47;;;0.80;99.90;;;;;;5029401;28;20221;-82
2024/01/07 07:41:30;;;;;;;0.50;0.40;;;0.90;99.90;;;;;;5020039;28;20193;-83
2024/01/07 07:43:56;;;;;;;0.50;0.40;;;0.90;99.90;;;;;;5026659;28;20192;-84
2024/01/07 07:46:23;;;;;;;0.50;0.50;;;0.90;99.90;;;;;;5027411;28;20216;-83
2024/01/07 07:48:51;;;;;;;3.03;2.75;;;0.90;99.90;;;;;;5035979;28;20231;-83
2024/01/07 07:51:18;;;;;;;4.28;2.55;;;0.90;99.90;;;;;;5035363;28;20283;-84
2024/01/07 07:53:46;;;;;;;4.50;2.35;;;1.00;99.90;;;;;;5027803;28;20200;-81
2024/01/07 07:56:12;;;;;;;0.85;0.85;;;0.90;99.90;;;;;;5036951;28;20220;-82
2024/01/07 07:58:39;;;;;;;1.90;1.80;;;0.90;99.90;;;;;;5027978;28;20582;-83
2024/01/07 08:01:06;;;;;;;3.42;1.48;;;0.90;99.90;;;;;;5030993;28;20226;-84
2024/01/07 08:03:33;;;;;;;1.77;1.67;;;0.90;99.90;;;;;;5031943;28;20618;-82
2024/01/07 08:06:01;;;;;;;2.05;1.70;;;0.90;99.90;;;;;;5030058;28;20219;-84
2024/01/07 08:08:28;;;;;;;0.50;0.40;;;0.90;99.90;;;;;;5025823;28;20222;-84
2024/01/07 08:10:54;;;;;;;0.77;0.77;;;0.80;99.90;;;;;;5031320;28;20201;-85
2024/01/07 08:13:21;;;;;;;0.50;0.40;;;0.80;99.90;;;;;;5040815;28;20199;-84
2024/01/07 08:15:48;;;;;;;0.50;0.50;;;0.70;99.90;;;;;;5032706;28;20219;-82
2024/01/07 08:18:15;;;;;;;0.65;0.63;;;0.70;99.90;;;;;;5028677;28;20255;-84
2024/01/07 08:20:42;;;;;;;0.50;0.50;;;0.60;99.90;;;;;;5028141;28;20230;-84
2024/01/07 08:23:10;;;;;;;1.40;0.77;;;0.60;99.90;;;;;;5028340;28;20219;-81
2024/01/07 08:25:37;;;;;;;0.50;0.40;;;0.60;99.90;;;;;;5027617;28;20223;-83
2024/01/07 08:28:04;;;;;;;2.25;2.15;;;0.50;99.90;;;;;;5030035;28;20220;-82
2024/01/07 08:30:30;;;;;;;2.65;2.42;;;0.60;99.90;;;;;;5034251;28;20247;-84
2024/01/07 08:32:57;;;;;;;0.90;0.90;;;0.60;99.90;;;;;;5022533;28;20196;-84
2024/01/07 08:35:24;;;;;;;0.50;0.50;;;0.50;99.90;;;;;;5035849;28;20582;-84
2024/01/07 08:37:51;;;;;;;1.25;1.15;;;0.60;99.90;;;;;;5021374;28;20196;-83
2024/01/07 08:40:19;;;;;;;1.55;1.45;;;0.60;99.90;;;;;;5024610;28;20192;-83
2024/01/07 08:42:45;;;;;;;10.48;7.28;;;0.50;99.90;;;;;;5032722;28;20202;-83
2024/01/07 08:45:12;;;;;;;4.65;3.42;;;0.50;99.90;;;;;;5020813;28;20216;-85
2024/01/07 08:47:39;;;;;;;0.50;0.40;;;0.50;99.90;;;;;;5030766;28;20200;-84
2024/01/07 08:50:07;;;;;;;3.65;3.35;;;0.50;99.90;;;;;;5035624;28;20727;-83
2024/01/07 08:52:35;;;;;;;1.15;1.15;;;0.50;99.90;;;;;;5031291;28;20197;-84
2024/01/07 08:55:01;;;;;;;0.95;0.95;;;0.50;99.90;;;;;;5032965;28;20247;-84
2024/01/07 08:57:30;;;;;;;4.20;3.33;;;0.50;99.90;;;;;;5032896;28;20197;-83
2024/01/07 08:59:56;;;;;;;1.40;1.30;;;0.60;99.90;;;;;;5040122;28;20198;-84
2024/01/07 09:02:23;;;;;;;2.90;2.70;;;0.60;99.90;;;;;;5033384;28;20203;-84
2024/01/07 09:04:50;;;;;;;0.68;0.68;;;0.60;99.90;;;;;;5032520;28;20230;-83
2024/01/07 09:07:17;;;;;;;3.90;2.67;;;0.60;99.90;;;;;;5031385;28;20568;-83
2024/01/07 09:09:44;;;;;;;3.35;3.10;;;0.60;99.90;;;;;;5031120;28;20243;-83
2024/01/07 09:12:10;;;;;;;1.02;1.02;;;0.60;99.90;;;;;;5041129;28;20200;-84
2024/01/07 09:14:40;;;;;;;4.53;4.13;;;0.70;99.90;;;;;;5032530;28;20220;-82
2024/01/07 09:17:06;;;;;;;2.78;1.85;;;0.60;99.90;;;;;;5034201;28;20200;-84
2024/01/07 09:19:33;;;;;;;5.20;2.90;;;0.60;99.90;;;;;;5034801;28;20196;-84
2024/01/07 09:22:00;;;;;;;0.50;0.40;;;0.60;99.90;;;;;;5034389;28;20286;-84
2024/01/07 09:24:27;;;;;;;0.50;0.50;;;0.60;99.90;;;;;;5032002;28;20303;-83
2024/01/07 09:26:53;;;;;;;2.45;1.30;;;0.60;99.90;;;;;;5039507;28;20192;-80
2024/01/07 09:29:20;;;;;;;5.10;2.78;;;0.60;99.90;;;;;;5031793;28;20300;-84
2024/01/07 09:31:48;;;;;;;0.50;0.47;;;0.60;99.90;;;;;;5032463;28;20193;-83
2024/01/07 09:34:15;;;;;;;7.72;4.88;;;0.60;99.90;;;;;;5030742;28;20192;-83
2024/01/07 09:36:42;;;;;;;0.95;0.95;;;0.60;99.90;;;;;;5030385;28;20200;-81
2024/01/07 09:39:09;;;;;;;7.32;5.70;;;0.60;99.90;;;;;;5028668;28;20204;-84
2024/01/07 09:41:36;;;;;;;0.70;0.70;;;0.60;99.90;;;;;;5035264;28;20291;-81
2024/01/07 09:44:04;;;;;;;0.55;0.55;;;0.60;99.90;;;;;;5040968;28;20195;-82
2024/01/07 09:49:22;;;;;;;1.65;1.55;;;0.60;99.90;;;;;;5023817;28;20216;-82
2024/01/07 09:51:51;;;;;;;0.77;0.77;;;0.70;99.90;;;;;;5039716;28;20582;-84
2024/01/07 09:54:19;;;;;;;1.00;0.95;;;0.80;99.90;;;;;;5030922;28;20192;-82
2024/01/07 09:56:53;;;;;;;0.77;0.77;;;0.80;99.90;;;;;;5037831;28;20211;-81
2024/01/07 09:59:21;;;;;;;4.18;2.80;;;0.80;99.90;;;;;;5038493;28;20188;-82
2024/01/07 10:01:48;;;;;;;0.70;0.60;;;0.80;99.90;;;;;;5022949;28;20188;-81
2024/01/07 10:04:15;;;;;;;2.45;1.67;;;0.90;99.90;;;;;;5018581;28;20581;-81
2024/01/07 10:06:43;;;;;;;1.33;1.15;;;0.80;99.90;;;;;;5018519;28;20196;-81
2024/01/07 10:09:12;;;;;;;0.80;0.80;;;0.90;99.90;;;;;;5018360;28;20209;-81
2024/01/07 10:11:39;;;;;;;3.20;2.67;;;0.80;99.90;;;;;;5018568;28;20203;-81
2024/01/07 10:14:07;;;;;;;0.90;0.90;;;0.90;99.90;;;;;;5017880;28;20204;-83
2024/01/07 10:16:34;;;;;;;0.60;0.60;;;0.90;99.90;;;;;;5017943;28;20193;-81
2024/01/07 10:19:01;;;;;;;1.92;1.80;;;1.00;99.90;;;;;;5018977;28;20188;-84
2024/01/07 10:21:28;;;;;;;2.88;2.15;;;1.00;99.90;;;;;;5018642;28;20193;-82
2024/01/07 10:24:09;;;;;;;1.98;1.30;;;1.00;99.90;;;;;;5017817;28;20199;-82
2024/01/07 10:26:35;;;;;;;1.48;1.38;;;1.00;99.90;;;;;;5023216;28;20645;-81
2024/01/07 10:29:02;;;;;;;1.58;1.48;;;1.00;99.90;;;;;;5020685;28;20722;-81
2024/01/07 10:31:29;;;;;;;2.78;2.67;;;1.00;99.90;;;;;;5025753;28;20196;-82
2024/01/07 10:33:57;;;;;;;0.77;0.77;;;1.00;99.90;;;;;;5025829;28;20196;-81
2024/01/07 10:36:24;;;;;;;1.20;1.20;;;0.80;99.90;;;;;;5019645;28;20208;-83
2024/01/07 10:38:51;;;;;;;4.53;1.90;;;0.80;99.90;;;;;;5017163;28;20221;-81
2024/01/07 10:41:20;;;;;;;1.77;1.70;;;0.70;99.90;;;;;;5020108;28;20200;-81
2024/01/07 10:43:50;;;;;;;0.50;0.50;;;0.70;99.90;;;;;;5037716;28;20198;-83
2024/01/07 10:46:17;;;;;;;2.35;2.25;;;0.70;99.90;;;;;;5021334;28;20733;-83
2024/01/07 10:48:54;;;;;;;0.80;0.80;;;0.70;99.90;;;;;;5032624;28;20193;-81
2024/01/07 10:51:22;;;;;;;1.40;1.40;;;0.80;99.90;;;;;;5037436;28;20191;-81
2024/01/07 10:53:54;;;;;;;4.90;1.75;;;0.80;99.90;;;;;;5037479;28;20199;-83
2024/01/07 10:56:24;;;;;;;0.57;0.55;;;0.70;99.90;;;;;;5042980;28;20246;-81
2024/01/07 10:58:53;;;;;;;0.50;0.40;;;0.70;99.90;;;;;;5046827;28;20188;-83
2024/01/07 11:01:20;;;;;;;6.30;1.45;;;0.70;99.90;;;;;;5028292;28;20287;-81
2024/01/07 11:03:57;;;;;;;0.85;0.85;;;0.80;99.90;;;;;;5022887;28;20188;-83
2024/01/07 11:06:30;;;;;;;12.45;1.40;;;0.70;99.90;;;;;;5021396;28;20215;-84
2024/01/07 11:09:03;;;;;;;1.02;0.80;;;0.70;99.90;;;;;;5021234;28;20223;-83
2024/01/07 11:11:41;;;;;;;2.13;1.98;;;0.70;99.90;;;;;;5022244;28;20204;-84
2024/01/07 11:14:39;;;;;;;0.60;0.60;;;0.60;99.90;;;;;;5029925;28;20631;-83
2024/01/07 11:17:06;;;;;;;1.13;1.02;;;0.50;99.90;;;;;;5022257;28;20636;-83
2024/01/07 11:19:33;;;;;;;0.60;0.60;;;0.60;99.90;;;;;;5016519;28;20191;-80
2024/01/07 11:22:23;;;;;;;1.45;1.20;;;0.60;99.90;;;;;;5023498;28;20702;-83
2024/01/07 11:24:50;;;;;;;1.58;0.82;;;0.50;99.90;;;;;;5021561;28;20208;-83
2024/01/07 11:27:18;;;;;;;1.55;1.45;;;0.50;99.90;;;;;;5016157;28;20200;-83
2024/01/07 11:29:45;;;;;;;1.10;1.02;;;0.60;99.90;;;;;;5015620;28;20235;-81
2024/01/07 11:32:14;;;;;;;0.82;0.82;;;0.60;99.90;;;;;;5017107;28;20672;-82
2024/01/07 11:34:43;;;;;;;0.80;0.80;;;0.60;99.90;;;;;;5016864;28;20223;-82
2024/01/07 11:37:12;;;;;;;1.58;1.48;;;0.60;99.90;;;;;;5016774;28;20204;-79
2024/01/07 11:39:39;;;;;;;1.88;1.70;;;0.50;99.90;;;;;;5016428;28;20219;-82
2024/01/07 11:42:06;;;;;;;0.60;0.50;;;0.40;99.90;;;;;;5016086;28;20192;-80
2024/01/07 11:44:37;;;;;;;0.50;0.40;;;0.50;99.90;;;;;;5020796;28;20211;-83
2024/01/07 11:47:04;;;;;;;3.20;2.45;;;0.50;99.90;;;;;;5037870;28;20246;-81
2024/01/07 11:49:31;;;;;;;1.85;1.35;;;0.50;99.90;;;;;;5034292;28;20214;-82
2024/01/07 11:51:57;;;;;;;0.57;0.57;;;0.50;99.90;;;;;;5034231;28;20196;-81
2024/01/07 11:54:24;;;;;;;1.42;1.33;;;0.40;99.90;;;;;;5033946;28;20213;-81
2024/01/07 11:56:51;;;;;;;0.50;0.50;;;0.50;99.90;;;;;;5035173;28;20200;-81
2024/01/07 11:59:18;;;;;;;0.50;0.50;;;0.50;99.90;;;;;;5034844;28;20203;-81
2024/01/07 12:01:46;;;;;;;1.42;1.35;;;0.60;99.90;;;;;;5034426;28;20670;-83
2024/01/07 12:04:13;;;;;;;0.50;0.40;;;0.60;99.90;;;;;;5033592;28;20199;-81
2024/01/07 12:06:40;;;;;;;3.28;3.08;;;0.50;99.90;;;;;;5034347;28;20196;-81
2024/01/07 12:09:06;;;;;;;0.73;0.73;;;0.50;99.90;;;;;;5033945;28;20192;-82
2024/01/07 12:11:33;;;;;;;2.38;2.28;;;0.50;99.90;;;;;;5034384;28;20196;-80
2024/01/07 12:14:00;;;;;;;0.50;0.50;;;0.40;99.90;;;;;;5033956;28;20200;-83
2024/01/07 12:16:27;;;;;;;1.95;1.15;;;0.40;99.90;;;;;;5033553;28;20295;-81
2024/01/07 12:18:56;;;;;;;0.60;0.60;;;0.50;99.90;;;;;;5034508;28;20195;-83
2024/01/07 12:21:23;;;;;;;0.70;0.70;;;0.40;99.90;;;;;;5037940;28;20196;-82
2024/01/07 12:23:52;;;;;;;3.20;1.55;;;0.40;99.90;;;;;;5032562;28;20192;-81
2024/01/07 12:26:19;;;;;;;1.60;0.90;;;0.30;99.90;;;;;;5018119;28;20224;-82
2024/01/07 12:28:53;;;;;;;2.58;1.73;;;0.20;99.90;;;;;;5017356;28;20192;-81
2024/01/07 12:31:20;;;;;;;0.60;0.60;;;0.20;99.90;;;;;;5018640;28;20244;-82
2024/01/07 12:33:47;;;;;;;0.63;0.63;;;0.20;99.90;;;;;;5018092;28;20193;-81
2024/01/07 12:36:16;;;;;;;2.80;2.45;;;0.20;99.90;;;;;;5018398;28;20326;-82
2024/01/07 12:38:43;;;;;;;2.67;2.47;;;0.20;99.90;;;;;;5018472;28;20198;-81
2024/01/07 12:41:10;;;;;;;27.92;3.10;;;0.10;99.90;;;;;;5018162;28;20193;-82
2024/01/07 12:43:38;;;;;;;0.93;0.82;;;0.00;99.90;;;;;;5010769;28;20687;-82
2024/01/07 12:46:05;;;;;;;1.85;1.55;;;0.00;99.90;;;;;;5017991;28;20216;-83
2024/01/07 12:48:32;;;;;;;0.88;0.82;;;0.10;99.90;;;;;;5036362;28;20200;-82
2024/01/07 12:50:59;;;;;;;1.60;0.90;;;0.10;99.90;;;;;;5037504;28;20222;-82
2024/01/07 12:53:27;;;;;;;1.70;1.25;;;0.10;99.90;;;;;;5038708;28;20196;-81
2024/01/07 12:55:54;;;;;;;1.85;1.38;;;0.10;99.90;;;;;;5036629;28;20298;-82
2024/01/07 12:58:21;;;;;;;0.82;0.82;;;0.20;99.90;;;;;;5034713;28;20192;-82
2024/01/07 13:00:48;;;;;;;2.80;0.82;;;0.20;99.90;;;;;;5032077;28;20623;-83
2024/01/07 13:03:18;;;;;;;1.63;1.52;;;0.30;99.90;;;;;;5036522;28;20200;-83